createdAt,value
2023-05-20T00:02:19.758Z,102204.06
2023-05-20T00:04:49.149Z,102209.50
2023-05-20T00:07:18.587Z,102206.50
2023-05-20T00:09:48.242Z,102211.38
2023-05-20T00:12:17.696Z,102206.84
2023-05-20T00:14:47.084Z,102204.81
2023-05-20T00:17:19.041Z,102215.75
2023-05-20T00:19:48.449Z,102217.25
2023-05-20T00:22:17.807Z,102208.69
2023-05-20T00:24:47.171Z,102206.75
2023-05-20T00:27:16.564Z,102212.00
2023-05-20T00:29:46.341Z,102206.72
2023-05-20T00:32:15.854Z,102208.38
2023-05-20T00:34:58.031Z,102214.00
2023-05-20T00:37:27.533Z,102217.91
2023-05-20T00:39:57.057Z,102208.34
2023-05-20T00:42:27.727Z,102201.53
2023-05-20T00:44:58.496Z,102206.91
2023-05-20T00:47:31.510Z,102210.34
2023-05-20T00:50:03.905Z,102213.25
2023-05-20T00:52:34.900Z,102213.25
2023-05-20T00:55:04.373Z,102209.03
2023-05-20T00:57:33.903Z,102201.19
2023-05-20T01:00:04.802Z,102201.47
2023-05-20T01:02:34.290Z,102209.84
2023-05-20T01:05:06.923Z,102209.03
2023-05-20T01:07:36.740Z,102202.50
2023-05-20T01:10:07.695Z,102198.50
2023-05-20T01:12:41.367Z,102200.69
2023-05-20T01:15:13.265Z,102196.41
2023-05-20T01:17:46.797Z,102190.34
2023-05-20T01:20:20.811Z,102199.75
2023-05-20T01:22:56.434Z,102188.44
2023-05-20T01:25:26.630Z,102183.75
2023-05-20T01:27:57.879Z,102182.44
2023-05-20T01:30:32.898Z,102187.28
2023-05-20T01:33:05.399Z,102188.94
2023-05-20T01:35:35.256Z,102183.38
2023-05-20T01:38:08.841Z,102180.06
2023-05-20T01:40:39.204Z,102181.88
2023-05-20T01:43:09.493Z,102187.25
2023-05-20T01:45:39.954Z,102181.63
2023-05-20T01:48:09.513Z,102192.94
2023-05-20T01:50:38.898Z,102185.53
2023-05-20T01:53:11.012Z,102179.38
2023-05-20T01:55:40.404Z,102176.09
2023-05-20T01:58:10.027Z,102180.69
2023-05-20T02:00:39.486Z,102174.56
2023-05-20T02:03:08.918Z,102175.75
2023-05-20T02:05:38.555Z,102170.34
2023-05-20T02:08:11.144Z,102177.88
2023-05-20T02:10:40.565Z,102174.13
2023-05-20T02:13:09.948Z,102172.81
2023-05-20T02:15:39.297Z,102177.38
2023-05-20T02:18:08.854Z,102177.41
2023-05-20T02:20:38.773Z,102185.41
2023-05-20T02:23:10.956Z,102181.53
2023-05-20T02:25:40.392Z,102180.22
2023-05-20T02:28:10.840Z,102180.56
2023-05-20T02:30:40.630Z,102174.34
2023-05-20T02:33:10.088Z,102177.28
2023-05-20T02:35:39.644Z,102183.41
2023-05-20T02:38:11.604Z,102171.84
2023-05-20T02:40:41.045Z,102177.50
2023-05-20T02:43:10.380Z,102182.91
2023-05-20T02:45:39.927Z,102176.19
2023-05-20T02:48:09.641Z,102178.47
2023-05-20T02:50:41.411Z,102183.59
2023-05-20T02:53:13.360Z,102178.19
2023-05-20T02:55:45.189Z,102175.88
2023-05-20T02:58:14.577Z,102173.03
2023-05-20T03:00:44.237Z,102181.38
2023-05-20T03:03:13.770Z,102175.88
2023-05-20T03:05:46.087Z,102173.13
2023-05-20T03:08:18.126Z,102177.34
2023-05-20T03:10:47.700Z,102182.56
2023-05-20T03:13:17.465Z,102181.81
2023-05-20T03:15:47.181Z,102178.69
2023-05-20T03:18:16.579Z,102178.00
2023-05-20T03:20:46.261Z,102187.59
2023-05-20T03:23:18.203Z,102184.97
2023-05-20T03:25:47.760Z,102187.97
2023-05-20T03:28:17.111Z,102196.22
2023-05-20T03:30:46.539Z,102191.13
2023-05-20T03:33:16.128Z,102194.97
2023-05-20T03:35:45.482Z,102201.19
2023-05-20T03:38:14.839Z,102195.50
2023-05-20T03:40:46.755Z,102198.66
2023-05-20T03:43:16.143Z,102189.09
2023-05-20T03:45:45.489Z,102197.06
2023-05-20T03:48:14.878Z,102198.91
2023-05-20T03:50:44.238Z,102194.28
2023-05-20T03:53:13.593Z,102202.47
2023-05-20T03:55:43.025Z,102190.59
2023-05-20T03:58:15.496Z,102199.59
2023-05-20T04:00:45.230Z,102192.72
2023-05-20T04:03:14.780Z,102194.34
2023-05-20T04:05:44.345Z,102179.78
2023-05-20T04:08:13.818Z,102188.94
2023-05-20T04:10:44.483Z,102188.81
2023-05-20T04:13:17.429Z,102179.75
2023-05-20T04:15:46.812Z,102195.00
2023-05-20T04:18:16.301Z,102191.16
2023-05-20T04:20:45.680Z,102194.78
2023-05-20T04:23:15.656Z,102184.47
2023-05-20T04:25:45.019Z,102193.00
2023-05-20T04:28:17.196Z,102196.34
2023-05-20T04:30:47.059Z,102193.53
2023-05-20T04:33:18.599Z,102199.75
2023-05-20T04:35:48.772Z,102205.09
2023-05-20T04:38:18.650Z,102210.84
2023-05-20T04:40:48.059Z,102202.59
2023-05-20T04:43:20.008Z,102204.38
2023-05-20T04:45:49.759Z,102207.34
2023-05-20T04:48:19.116Z,102195.16
2023-05-20T04:50:48.636Z,102204.38
2023-05-20T04:53:18.217Z,102203.13
2023-05-20T04:55:48.462Z,102200.47
2023-05-20T04:58:20.377Z,102197.94
2023-05-20T05:00:50.584Z,102205.16
2023-05-20T05:03:20.746Z,102203.31
2023-05-20T05:05:50.092Z,102195.56
2023-05-20T05:08:19.542Z,102198.69
2023-05-20T05:10:48.963Z,102199.91
2023-05-20T05:13:20.976Z,102193.69
2023-05-20T05:15:50.436Z,102200.13
2023-05-20T05:18:20.200Z,102197.91
2023-05-20T05:20:49.563Z,102198.47
2023-05-20T05:23:18.898Z,102201.06
2023-05-20T05:25:48.327Z,102199.03
2023-05-20T05:28:17.686Z,102203.03
2023-05-20T05:30:50.172Z,102209.31
2023-05-20T05:33:20.335Z,102207.66
2023-05-20T05:35:49.872Z,102192.66
2023-05-20T05:38:19.399Z,102191.94
2023-05-20T05:40:49.254Z,102193.22
2023-05-20T05:43:18.665Z,102184.47
2023-05-20T05:45:50.772Z,102191.44
2023-05-20T05:48:20.214Z,102194.19
2023-05-20T05:50:49.874Z,102193.38
2023-05-20T05:53:19.420Z,102191.53
2023-05-20T05:55:49.407Z,102187.00
2023-05-20T05:58:18.760Z,102188.63
2023-05-20T06:00:55.067Z,102193.34
2023-05-20T06:03:24.685Z,102193.34
2023-05-20T06:05:54.305Z,102195.78
2023-05-20T06:08:23.712Z,102192.69
2023-05-20T06:10:53.714Z,102188.06
2023-05-20T06:13:24.639Z,102181.19
2023-05-20T06:15:56.593Z,102188.94
2023-05-20T06:18:26.159Z,102180.56
2023-05-20T06:20:58.319Z,102179.47
2023-05-20T06:23:27.912Z,102175.66
2023-05-20T06:26:00.714Z,102180.56
2023-05-20T06:28:30.559Z,102183.00
2023-05-20T06:31:02.661Z,102179.97
2023-05-20T06:33:32.089Z,102177.69
2023-05-20T06:36:01.935Z,102180.13
2023-05-20T06:38:31.551Z,102187.47
2023-05-20T06:41:00.924Z,102197.19
2023-05-20T06:43:30.329Z,102194.66
2023-05-20T06:46:02.334Z,102194.41
2023-05-20T06:48:31.798Z,102194.28
2023-05-20T06:51:01.288Z,102190.06
2023-05-20T06:53:30.644Z,102176.63
2023-05-20T06:56:00.009Z,102175.16
2023-05-20T06:58:29.517Z,102178.44
2023-05-20T07:00:58.861Z,102169.97
2023-05-20T07:03:31.063Z,102167.06
2023-05-20T07:06:00.534Z,102164.94
2023-05-20T07:08:29.938Z,102163.53
2023-05-20T07:10:59.915Z,102170.56
2023-05-20T07:13:29.320Z,102162.44
2023-05-20T07:15:58.805Z,102160.31
2023-05-20T07:18:31.505Z,102158.91
2023-05-20T07:21:00.959Z,102161.38
2023-05-20T07:23:30.324Z,102153.91
2023-05-20T07:25:59.716Z,102151.41
2023-05-20T07:28:29.085Z,102142.81
2023-05-20T07:31:00.383Z,102135.13
2023-05-20T07:33:32.997Z,102135.06
2023-05-20T07:36:02.374Z,102137.19
2023-05-20T07:38:32.378Z,102130.31
2023-05-20T07:41:01.891Z,102132.25
2023-05-20T07:43:31.387Z,102131.34
2023-05-20T07:46:01.027Z,102132.44
2023-05-20T07:48:33.053Z,102132.47
2023-05-20T07:51:02.454Z,102133.38
2023-05-20T07:53:31.852Z,102125.25
2023-05-20T07:56:01.206Z,102128.94
2023-05-20T07:58:31.750Z,102137.16
2023-05-20T08:01:05.326Z,102131.69
2023-05-20T08:03:37.475Z,102131.03
2023-05-20T08:06:07.071Z,102139.31
2023-05-20T08:08:36.491Z,102132.75
2023-05-20T08:11:05.850Z,102130.78
2023-05-20T08:13:35.308Z,102123.88
2023-05-20T08:16:05.959Z,102129.00
2023-05-20T08:18:39.357Z,102119.63
2023-05-20T08:21:10.420Z,102131.13
2023-05-20T08:23:40.637Z,102128.94
2023-05-20T08:26:11.028Z,102131.13
2023-05-20T08:28:40.642Z,102123.50
2023-05-20T08:31:10.176Z,102129.31
2023-05-20T08:33:42.130Z,102123.41
2023-05-20T08:36:11.508Z,102114.88
2023-05-20T08:38:40.876Z,102114.41
2023-05-20T08:41:10.241Z,102122.19
2023-05-20T08:43:40.614Z,102109.72
2023-05-20T08:46:10.482Z,102128.03
2023-05-20T08:48:43.105Z,102119.06
2023-05-20T08:51:13.260Z,102122.84
2023-05-20T08:53:42.804Z,102108.66
2023-05-20T08:56:14.255Z,102112.41
2023-05-20T08:58:43.664Z,102112.47
2023-05-20T09:01:13.181Z,102104.91
2023-05-20T09:03:45.145Z,102093.88
2023-05-20T09:06:20.389Z,102096.16
2023-05-20T09:08:52.985Z,102098.69
2023-05-20T09:11:23.232Z,102087.03
2023-05-20T09:13:53.064Z,102092.81
2023-05-20T09:16:22.582Z,102095.44
2023-05-20T09:18:58.425Z,102087.56
2023-05-20T09:21:29.407Z,102087.56
2023-05-20T09:23:59.889Z,102091.19
2023-05-20T09:26:30.404Z,102087.75
2023-05-20T09:29:00.169Z,102080.69
2023-05-20T09:31:31.051Z,102071.97
2023-05-20T09:34:03.313Z,102075.56
2023-05-20T09:36:34.468Z,102077.56
2023-05-20T09:39:06.370Z,102074.13
2023-05-20T09:41:39.423Z,102072.25
2023-05-20T09:44:09.446Z,102072.94
2023-05-20T09:46:39.801Z,102070.81
2023-05-20T09:49:13.247Z,102077.13
2023-05-20T09:51:44.696Z,102071.66
2023-05-20T09:54:16.053Z,102064.44
2023-05-20T09:56:46.067Z,102063.47
2023-05-20T09:59:17.817Z,102049.22
2023-05-20T10:01:47.383Z,102056.13
2023-05-20T10:04:21.080Z,102052.31
2023-05-20T10:07:12.002Z,102052.31
2023-05-20T10:09:58.397Z,102045.16
2023-05-20T10:12:36.621Z,102057.28
2023-05-20T10:15:19.244Z,102054.84
2023-05-20T10:17:58.403Z,102064.25
2023-05-20T10:20:30.504Z,102054.44
2023-05-20T10:23:00.834Z,102052.63
2023-05-20T10:25:31.083Z,102047.38
2023-05-20T10:28:11.940Z,102053.81
2023-05-20T10:30:52.280Z,102051.16
2023-05-20T10:33:21.871Z,102056.84
2023-05-20T10:35:55.738Z,102052.53
2023-05-20T10:38:25.115Z,102050.34
2023-05-20T10:40:55.212Z,102050.59
2023-05-20T10:43:30.247Z,102042.56
2023-05-20T10:46:01.957Z,102041.44
2023-05-20T10:48:35.713Z,102036.69
2023-05-20T10:51:17.140Z,102039.34
2023-05-20T10:53:49.416Z,102036.25
2023-05-20T10:56:23.147Z,102026.81
2023-05-20T10:58:54.176Z,102025.47
2023-05-20T11:01:27.039Z,102032.91
2023-05-20T11:03:58.892Z,102024.69
2023-05-20T11:06:31.874Z,102025.63
2023-05-20T11:09:07.620Z,102021.53
2023-05-20T11:11:38.759Z,102030.16
2023-05-20T11:14:08.366Z,102024.75
2023-05-20T11:16:37.818Z,102019.81
2023-05-20T11:19:07.349Z,102021.03
2023-05-20T11:21:46.214Z,102022.25
2023-05-20T11:24:15.862Z,102020.38
2023-05-20T11:26:45.323Z,102019.31
2023-05-20T11:29:14.760Z,102018.88
2023-05-20T11:31:44.157Z,102014.19
2023-05-20T11:34:13.545Z,102023.84
2023-05-20T11:36:46.699Z,102028.66
2023-05-20T11:39:17.593Z,102027.41
2023-05-20T11:41:46.975Z,102028.44
2023-05-20T11:44:16.811Z,102025.19
2023-05-20T11:46:47.139Z,102026.16
2023-05-20T11:49:17.206Z,102021.84
2023-05-20T11:51:49.127Z,102025.13
2023-05-20T11:54:18.501Z,102021.66
2023-05-20T11:56:48.190Z,102015.22
2023-05-20T11:59:17.611Z,102015.13
2023-05-20T12:01:47.130Z,102018.94
2023-05-20T12:04:17.634Z,102015.13
2023-05-20T12:06:49.868Z,102017.41
2023-05-20T12:09:19.285Z,102008.00
2023-05-20T12:11:48.759Z,102010.97
2023-05-20T12:14:18.128Z,102004.72
2023-05-20T12:16:47.474Z,101996.34
2023-05-20T12:19:17.024Z,101994.91
2023-05-20T12:21:49.309Z,102002.56
2023-05-20T12:24:18.715Z,102002.63
2023-05-20T12:26:48.094Z,101987.09
2023-05-20T12:29:17.476Z,101993.78
2023-05-20T12:31:46.858Z,101989.72
2023-05-20T12:34:16.344Z,101993.84
2023-05-20T12:36:46.451Z,101996.75
2023-05-20T12:39:18.940Z,101992.31
2023-05-20T12:41:48.407Z,101985.97
2023-05-20T12:44:17.759Z,101979.75
2023-05-20T12:46:47.274Z,101979.50
2023-05-20T12:49:16.786Z,101973.06
2023-05-20T12:51:46.162Z,101974.50
2023-05-20T12:54:18.112Z,101973.41
2023-05-20T12:56:48.754Z,101974.59
2023-05-20T12:59:18.132Z,101974.00
2023-05-20T13:01:47.527Z,101972.97
2023-05-20T13:04:16.877Z,101966.63
2023-05-20T13:06:46.338Z,101966.44
2023-05-20T13:09:18.571Z,101955.59
2023-05-20T13:11:47.935Z,101951.81
2023-05-20T13:14:17.599Z,101956.25
2023-05-20T13:16:47.176Z,101943.31
2023-05-20T13:19:16.723Z,101946.69
2023-05-20T13:21:46.115Z,101941.53
2023-05-20T13:24:18.070Z,101925.69
2023-05-20T13:26:48.039Z,101931.22
2023-05-20T13:29:17.502Z,101929.56
2023-05-20T13:31:46.913Z,101926.75
2023-05-20T13:34:16.635Z,101914.91
2023-05-20T13:36:46.100Z,101914.34
2023-05-20T13:39:18.580Z,101912.44
2023-05-20T13:41:48.005Z,101906.81
2023-05-20T13:44:17.408Z,101912.56
2023-05-20T13:46:46.877Z,101910.47
2023-05-20T13:49:16.372Z,101911.47
2023-05-20T13:51:46.181Z,101912.31
2023-05-20T13:54:18.541Z,101903.09
2023-05-20T13:56:48.572Z,101901.34
2023-05-20T13:59:17.926Z,101896.09
2023-05-20T14:01:47.526Z,101892.41
2023-05-20T14:04:17.425Z,101890.91
2023-05-20T14:06:46.845Z,101895.03
2023-05-20T14:09:18.868Z,101881.50
2023-05-20T14:11:48.395Z,101882.38
2023-05-20T14:14:17.785Z,101873.94
2023-05-20T14:16:47.129Z,101875.56
2023-05-20T14:19:16.565Z,101871.78
2023-05-20T14:21:46.036Z,101867.31
2023-05-20T14:24:17.980Z,101864.97
2023-05-20T14:26:47.414Z,101868.47
2023-05-20T14:29:17.107Z,101855.41
2023-05-20T14:31:46.546Z,101851.28
2023-05-20T14:34:15.929Z,101851.28
2023-05-20T14:36:45.583Z,101851.78
2023-05-20T14:39:15.092Z,101844.78
2023-05-20T14:41:47.069Z,101839.81
2023-05-20T14:44:16.461Z,101843.66
2023-05-20T14:46:46.125Z,101838.50
2023-05-20T14:49:15.618Z,101841.84
2023-05-20T14:51:45.130Z,101836.56
2023-05-20T14:54:15.780Z,101836.59
2023-05-20T14:56:49.877Z,101838.84
2023-05-20T14:59:19.463Z,101822.00
2023-05-20T15:01:49.037Z,101827.41
2023-05-20T15:04:18.467Z,101825.75
2023-05-20T15:06:47.881Z,101813.03
2023-05-20T15:09:17.277Z,101821.81
2023-05-20T15:11:49.251Z,101815.75
2023-05-20T15:14:18.707Z,101804.34
2023-05-20T15:16:48.184Z,101815.25
2023-05-20T15:19:17.701Z,101813.91
2023-05-20T15:21:47.467Z,101811.19
2023-05-20T15:24:17.098Z,101809.78
2023-05-20T15:26:49.195Z,101811.69
2023-05-20T15:29:18.592Z,101813.94
2023-05-20T15:31:47.972Z,101804.91
2023-05-20T15:34:17.368Z,101802.34
2023-05-20T15:36:46.776Z,101808.50
2023-05-20T15:39:16.179Z,101810.22
2023-05-20T15:41:48.063Z,101797.75
2023-05-20T15:44:20.010Z,101800.75
2023-05-20T15:46:49.396Z,101800.50
2023-05-20T15:49:18.766Z,101799.16
2023-05-20T15:51:55.671Z,101791.19
2023-05-20T15:54:31.621Z,101788.78
2023-05-20T15:57:01.201Z,101787.72
2023-05-20T15:59:33.179Z,101783.66
2023-05-20T16:02:02.756Z,101788.28
2023-05-20T16:04:32.691Z,101782.88
2023-05-20T16:07:02.337Z,101786.47
2023-05-20T16:09:31.777Z,101780.69
2023-05-20T16:12:01.138Z,101781.56
2023-05-20T16:14:33.097Z,101777.44
2023-05-20T16:17:03.171Z,101776.88
2023-05-20T16:19:32.568Z,101777.19
2023-05-20T16:22:02.040Z,101773.13
2023-05-20T16:24:31.432Z,101767.66
2023-05-20T16:27:00.861Z,101762.78
2023-05-20T16:29:32.812Z,101760.63
2023-05-20T16:32:02.563Z,101766.53
2023-05-20T16:34:32.696Z,101761.41
2023-05-20T16:37:02.260Z,101758.41
2023-05-20T16:39:31.679Z,101751.81
2023-05-20T16:42:01.675Z,101755.09
2023-05-20T16:44:38.638Z,101752.69
2023-05-20T16:47:08.226Z,101743.44
2023-05-20T16:49:37.904Z,101738.50
2023-05-20T16:52:08.134Z,101739.81
2023-05-20T16:54:38.667Z,101729.84
2023-05-20T16:57:08.628Z,101737.69
2023-05-20T16:59:40.851Z,101743.69
2023-05-20T17:02:10.280Z,101737.38
2023-05-20T17:04:39.707Z,101734.38
2023-05-20T17:07:09.911Z,101734.38
2023-05-20T17:09:39.371Z,101735.00
2023-05-20T17:12:09.883Z,101738.25
2023-05-20T17:14:41.793Z,101739.38
2023-05-20T17:17:14.079Z,101737.75
2023-05-20T17:19:43.850Z,101738.03
2023-05-20T17:22:13.243Z,101736.88
2023-05-20T17:24:42.652Z,101739.88
2023-05-20T17:27:12.052Z,101742.59
2023-05-20T17:29:44.128Z,101737.69
2023-05-20T17:32:13.471Z,101732.44
2023-05-20T17:34:42.843Z,101725.63
2023-05-20T17:37:12.224Z,101728.16
2023-05-20T17:39:42.393Z,101723.00
2023-05-20T17:42:11.768Z,101725.13
2023-05-20T17:44:43.752Z,101720.28
2023-05-20T17:47:15.448Z,101711.28
2023-05-20T17:49:45.267Z,101711.31
2023-05-20T17:52:14.652Z,101716.66
2023-05-20T17:54:44.073Z,101721.41
2023-05-20T17:57:13.438Z,101719.22
2023-05-20T17:59:45.651Z,101718.69
2023-05-20T18:02:15.378Z,101715.16
2023-05-20T18:04:44.902Z,101730.72
2023-05-20T18:07:15.188Z,101722.97
2023-05-20T18:09:44.543Z,101719.44
2023-05-20T18:12:13.865Z,101721.25
2023-05-20T18:14:45.772Z,101714.84
2023-05-20T18:17:15.120Z,101723.59
2023-05-20T18:19:44.464Z,101724.31
2023-05-20T18:22:13.833Z,101733.88
2023-05-20T18:24:43.207Z,101725.22
2023-05-20T18:27:12.664Z,101712.13
2023-05-20T18:29:42.043Z,101720.81
2023-05-20T18:32:14.429Z,101715.69
2023-05-20T18:34:43.813Z,101722.38
2023-05-20T18:37:13.317Z,101718.63
2023-05-20T18:39:42.975Z,101716.22
2023-05-20T18:42:12.509Z,101723.00
2023-05-20T18:44:42.024Z,101733.06
2023-05-20T18:47:14.174Z,101730.94
2023-05-20T18:49:43.722Z,101734.47
2023-05-20T18:52:13.128Z,101729.19
2023-05-20T18:54:42.511Z,101732.25
2023-05-20T18:57:11.989Z,101738.53
2023-05-20T18:59:41.537Z,101742.03
2023-05-20T19:02:10.906Z,101732.81
2023-05-20T19:04:42.882Z,101735.47
2023-05-20T19:07:13.282Z,101734.19
2023-05-20T19:09:42.640Z,101736.94
2023-05-20T19:12:12.062Z,101741.03
2023-05-20T19:14:41.497Z,101741.28
2023-05-20T19:17:11.137Z,101749.28
2023-05-20T19:19:43.080Z,101745.94
2023-05-20T19:22:12.439Z,101750.81
2023-05-20T19:24:41.823Z,101741.91
2023-05-20T19:27:11.240Z,101735.41
2023-05-20T19:29:40.740Z,101740.66
2023-05-20T19:32:11.030Z,101744.63
2023-05-20T19:34:43.914Z,101741.41
2023-05-20T19:37:13.590Z,101739.81
2023-05-20T19:39:42.975Z,101735.44
2023-05-20T19:42:12.366Z,101733.81
2023-05-20T19:44:41.995Z,101743.16
2023-05-20T19:47:11.437Z,101746.66
2023-05-20T19:49:43.400Z,101744.09
2023-05-20T19:52:12.735Z,101748.03
2023-05-20T19:54:43.135Z,101745.41
2023-05-20T19:57:13.133Z,101739.09
2023-05-20T19:59:42.552Z,101740.31
2023-05-20T20:02:11.965Z,101740.28
2023-05-20T20:04:44.689Z,101751.81
2023-05-20T20:07:14.268Z,101756.44
2023-05-20T20:09:45.056Z,101750.50
2023-05-20T20:12:14.421Z,101749.56
2023-05-20T20:14:43.936Z,101753.31
2023-05-20T20:17:15.719Z,101743.88
2023-05-20T20:19:48.823Z,101740.03
2023-05-20T20:22:19.537Z,101735.66
2023-05-20T20:24:49.944Z,101736.50
2023-05-20T20:27:19.455Z,101732.91
2023-05-20T20:29:48.837Z,101731.19
2023-05-20T20:32:18.703Z,101739.69
2023-05-20T20:34:51.344Z,101742.38
2023-05-20T20:37:23.127Z,101737.59
2023-05-20T20:39:52.756Z,101740.31
2023-05-20T20:42:22.415Z,101738.09
2023-05-20T20:44:52.699Z,101732.72
2023-05-20T20:47:23.734Z,101726.69
2023-05-20T20:49:55.810Z,101729.53
2023-05-20T20:52:25.173Z,101728.88
2023-05-20T20:54:54.522Z,101739.53
2023-05-20T20:57:25.231Z,101730.94
2023-05-20T20:59:57.847Z,101723.97
2023-05-20T21:02:29.336Z,101728.56
2023-05-20T21:05:02.181Z,101721.88
2023-05-20T21:07:32.660Z,101720.25
2023-05-20T21:10:06.348Z,101722.69
2023-05-20T21:12:35.900Z,101724.38
2023-05-20T21:15:06.575Z,101731.06
2023-05-20T21:17:35.996Z,101727.75
2023-05-20T21:20:10.562Z,101716.84
2023-05-20T21:22:40.067Z,101719.50
2023-05-20T21:25:10.742Z,101712.69
2023-05-20T21:27:41.442Z,101716.81
2023-05-20T21:30:14.481Z,101722.13
2023-05-20T21:32:43.948Z,101707.44
2023-05-20T21:35:16.136Z,101714.13
2023-05-20T21:37:45.506Z,101709.38
2023-05-20T21:40:16.103Z,101708.44
2023-05-20T21:42:45.718Z,101703.72
2023-05-20T21:45:15.642Z,101694.09
2023-05-20T21:47:46.383Z,101696.56
2023-05-20T21:50:18.464Z,101691.16
2023-05-20T21:52:47.879Z,101685.50
2023-05-20T21:55:17.407Z,101687.88
2023-05-20T21:57:46.885Z,101689.31
2023-05-20T22:00:19.008Z,101686.72
2023-05-20T22:02:48.706Z,101681.63
2023-05-20T22:05:20.951Z,101675.97
2023-05-20T22:07:51.629Z,101669.44
2023-05-20T22:10:23.117Z,101669.09
2023-05-20T22:12:53.492Z,101674.34
2023-05-20T22:15:23.163Z,101675.00
2023-05-20T22:17:52.789Z,101672.19
2023-05-20T22:20:25.334Z,101670.34
2023-05-20T22:22:54.725Z,101672.50
2023-05-20T22:25:24.146Z,101671.84
2023-05-20T22:27:53.613Z,101667.50
2023-05-20T22:30:23.066Z,101668.44
2023-05-20T22:32:52.670Z,101672.56
2023-05-20T22:35:25.081Z,101671.25
2023-05-20T22:37:54.996Z,101665.28
2023-05-20T22:40:24.807Z,101667.66
2023-05-20T22:42:54.268Z,101661.78
2023-05-20T22:45:23.630Z,101658.97
2023-05-20T22:47:54.206Z,101661.22
2023-05-20T22:50:27.852Z,101648.31
2023-05-20T22:52:57.553Z,101644.66
2023-05-20T22:55:26.893Z,101637.94
2023-05-20T22:57:56.286Z,101633.13
2023-05-20T23:00:25.792Z,101636.66
2023-05-20T23:02:56.843Z,101628.44
2023-05-20T23:05:30.289Z,101622.19
2023-05-20T23:08:00.046Z,101623.16
2023-05-20T23:10:29.484Z,101618.59
2023-05-20T23:12:58.860Z,101614.03
2023-05-20T23:15:30.814Z,101619.34
2023-05-20T23:18:00.224Z,101613.63
2023-05-20T23:20:32.255Z,101606.56
2023-05-20T23:23:08.257Z,101608.59
2023-05-20T23:25:40.950Z,101606.47
2023-05-20T23:28:11.388Z,101606.13
2023-05-20T23:30:43.631Z,101599.59
2023-05-20T23:33:13.340Z,101595.50
2023-05-20T23:35:46.523Z,101587.75
2023-05-20T23:38:16.951Z,101584.63
2023-05-20T23:40:46.322Z,101589.47
2023-05-20T23:43:15.709Z,101589.56
2023-05-20T23:45:45.157Z,101587.56
2023-05-20T23:48:14.613Z,101595.06
2023-05-20T23:50:46.555Z,101586.41
2023-05-20T23:53:16.000Z,101593.44
2023-05-20T23:55:45.433Z,101583.56
2023-05-20T23:58:14.854Z,101582.13
